sensor_id;sensor_type;location;lat;lon;timestamp;P1;durP1;ratioP1;P2;durP2;ratioP2
39400;SDS011;54391;50.000;7.360;2022-12-29T00:01:59;1.17;;;0.75;;
39400;SDS011;54391;50.000;7.360;2022-12-29T00:04:27;2.00;;;0.98;;
39400;SDS011;54391;50.000;7.360;2022-12-29T00:06:54;1.27;;;0.80;;
39400;SDS011;54391;50.000;7.360;2022-12-29T00:09:21;2.63;;;0.80;;
39400;SDS011;54391;50.000;7.360;2022-12-29T00:11:49;1.13;;;0.70;;
39400;SDS011;54391;50.000;7.360;2022-12-29T00:14:16;0.90;;;0.80;;
39400;SDS011;54391;50.000;7.360;2022-12-29T00:17:03;0.77;;;0.65;;
39400;SDS011;54391;50.000;7.360;2022-12-29T00:19:30;1.58;;;0.70;;
39400;SDS011;54391;50.000;7.360;2022-12-29T00:22:14;0.85;;;0.70;;
39400;SDS011;54391;50.000;7.360;2022-12-29T00:24:59;1.35;;;0.80;;
39400;SDS011;54391;50.000;7.360;2022-12-29T00:27:44;2.22;;;0.80;;
39400;SDS011;54391;50.000;7.360;2022-12-29T00:30:30;0.65;;;0.60;;
39400;SDS011;54391;50.000;7.360;2022-12-29T00:33:17;1.23;;;0.73;;
39400;SDS011;54391;50.000;7.360;2022-12-29T00:36:03;1.48;;;0.90;;
39400;SDS011;54391;50.000;7.360;2022-12-29T00:38:37;1.52;;;0.70;;
39400;SDS011;54391;50.000;7.360;2022-12-29T00:41:27;0.85;;;0.50;;
39400;SDS011;54391;50.000;7.360;2022-12-29T00:44:12;1.00;;;0.55;;
39400;SDS011;54391;50.000;7.360;2022-12-29T00:46:40;1.23;;;0.70;;
39400;SDS011;54391;50.000;7.360;2022-12-29T00:49:10;1.60;;;0.93;;
39400;SDS011;54391;50.000;7.360;2022-12-29T00:51:58;2.35;;;1.27;;
39400;SDS011;54391;50.000;7.360;2022-12-29T00:54:29;1.25;;;0.50;;
39400;SDS011;54391;50.000;7.360;2022-12-29T00:56:57;0.80;;;0.45;;
39400;SDS011;54391;50.000;7.360;2022-12-29T00:59:27;1.23;;;0.60;;
39400;SDS011;54391;50.000;7.360;2022-12-29T01:01:56;1.10;;;0.40;;
39400;SDS011;54391;50.000;7.360;2022-12-29T01:04:25;0.70;;;0.40;;
39400;SDS011;54391;50.000;7.360;2022-12-29T01:06:53;0.50;;;0.40;;
39400;SDS011;54391;50.000;7.360;2022-12-29T01:09:20;0.65;;;0.50;;
39400;SDS011;54391;50.000;7.360;2022-12-29T01:12:05;0.30;;;0.20;;
39400;SDS011;54391;50.000;7.360;2022-12-29T01:14:33;0.30;;;0.20;;
39400;SDS011;54391;50.000;7.360;2022-12-29T01:17:02;0.30;;;0.30;;
39400;SDS011;54391;50.000;7.360;2022-12-29T01:19:31;0.28;;;0.20;;
39400;SDS011;54391;50.000;7.360;2022-12-29T01:21:59;0.28;;;0.20;;
39400;SDS011;54391;50.000;7.360;2022-12-29T01:24:28;0.45;;;0.28;;
39400;SDS011;54391;50.000;7.360;2022-12-29T01:26:55;0.10;;;0.00;;
39400;SDS011;54391;50.000;7.360;2022-12-29T01:29:23;0.43;;;0.20;;
39400;SDS011;54391;50.000;7.360;2022-12-29T01:31:50;2.35;;;0.45;;
39400;SDS011;54391;50.000;7.360;2022-12-29T01:34:17;0.10;;;0.10;;
39400;SDS011;54391;50.000;7.360;2022-12-29T01:36:46;0.70;;;0.28;;
39400;SDS011;54391;50.000;7.360;2022-12-29T01:39:13;0.50;;;0.30;;
39400;SDS011;54391;50.000;7.360;2022-12-29T01:41:40;0.20;;;0.10;;
39400;SDS011;54391;50.000;7.360;2022-12-29T01:47:13;0.40;;;0.20;;
39400;SDS011;54391;50.000;7.360;2022-12-29T01:49:42;1.00;;;0.20;;
39400;SDS011;54391;50.000;7.360;2022-12-29T01:52:10;0.40;;;0.10;;
39400;SDS011;54391;50.000;7.360;2022-12-29T01:54:38;1.38;;;0.20;;
39400;SDS011;54391;50.000;7.360;2022-12-29T01:57:10;0.65;;;0.30;;
39400;SDS011;54391;50.000;7.360;2022-12-29T01:59:41;0.30;;;0.30;;
39400;SDS011;54391;50.000;7.360;2022-12-29T02:02:13;1.55;;;0.47;;
39400;SDS011;54391;50.000;7.360;2022-12-29T02:04:40;0.65;;;0.38;;
39400;SDS011;54391;50.000;7.360;2022-12-29T02:07:13;0.80;;;0.55;;
39400;SDS011;54391;50.000;7.360;2022-12-29T02:09:45;0.50;;;0.40;;
39400;SDS011;54391;50.000;7.360;2022-12-29T02:12:14;0.52;;;0.45;;
39400;SDS011;54391;50.000;7.360;2022-12-29T02:14:43;0.65;;;0.43;;
39400;SDS011;54391;50.000;7.360;2022-12-29T02:17:13;1.20;;;0.30;;
39400;SDS011;54391;50.000;7.360;2022-12-29T02:19:54;0.82;;;0.45;;
39400;SDS011;54391;50.000;7.360;2022-12-29T02:22:48;0.82;;;0.65;;
39400;SDS011;54391;50.000;7.360;2022-12-29T02:25:38;0.32;;;0.20;;
39400;SDS011;54391;50.000;7.360;2022-12-29T02:31:30;0.40;;;0.30;;
39400;SDS011;54391;50.000;7.360;2022-12-29T02:34:03;0.63;;;0.22;;
39400;SDS011;54391;50.000;7.360;2022-12-29T02:36:45;0.40;;;0.25;;
39400;SDS011;54391;50.000;7.360;2022-12-29T02:39:21;0.20;;;0.15;;
39400;SDS011;54391;50.000;7.360;2022-12-29T02:42:00;0.38;;;0.20;;
39400;SDS011;54391;50.000;7.360;2022-12-29T02:44:37;0.40;;;0.20;;
39400;SDS011;54391;50.000;7.360;2022-12-29T02:47:16;1.08;;;0.20;;
39400;SDS011;54391;50.000;7.360;2022-12-29T02:49:51;0.32;;;0.28;;
39400;SDS011;54391;50.000;7.360;2022-12-29T02:52:25;0.20;;;0.10;;
39400;SDS011;54391;50.000;7.360;2022-12-29T02:54:57;0.20;;;0.20;;
39400;SDS011;54391;50.000;7.360;2022-12-29T02:57:28;0.32;;;0.20;;
39400;SDS011;54391;50.000;7.360;2022-12-29T02:59:57;0.50;;;0.30;;
39400;SDS011;54391;50.000;7.360;2022-12-29T03:02:33;0.68;;;0.40;;
39400;SDS011;54391;50.000;7.360;2022-12-29T03:05:28;0.32;;;0.22;;
39400;SDS011;54391;50.000;7.360;2022-12-29T03:08:09;0.82;;;0.40;;
39400;SDS011;54391;50.000;7.360;2022-12-29T03:10:44;2.13;;;0.50;;
39400;SDS011;54391;50.000;7.360;2022-12-29T03:13:19;1.23;;;0.50;;
39400;SDS011;54391;50.000;7.360;2022-12-29T03:16:12;0.98;;;0.50;;
39400;SDS011;54391;50.000;7.360;2022-12-29T03:18:49;0.45;;;0.40;;
39400;SDS011;54391;50.000;7.360;2022-12-29T03:21:22;0.40;;;0.30;;
39400;SDS011;54391;50.000;7.360;2022-12-29T03:24:12;0.60;;;0.40;;
39400;SDS011;54391;50.000;7.360;2022-12-29T03:26:41;2.33;;;0.57;;
39400;SDS011;54391;50.000;7.360;2022-12-29T03:29:11;1.20;;;0.40;;
39400;SDS011;54391;50.000;7.360;2022-12-29T03:31:42;1.17;;;0.57;;
39400;SDS011;54391;50.000;7.360;2022-12-29T03:34:11;2.38;;;0.80;;
39400;SDS011;54391;50.000;7.360;2022-12-29T03:36:42;0.50;;;0.35;;
39400;SDS011;54391;50.000;7.360;2022-12-29T03:39:18;0.98;;;0.45;;
39400;SDS011;54391;50.000;7.360;2022-12-29T03:41:48;0.80;;;0.60;;
39400;SDS011;54391;50.000;7.360;2022-12-29T03:44:19;1.10;;;0.70;;
39400;SDS011;54391;50.000;7.360;2022-12-29T03:46:46;0.60;;;0.60;;
39400;SDS011;54391;50.000;7.360;2022-12-29T03:49:15;1.55;;;0.75;;
39400;SDS011;54391;50.000;7.360;2022-12-29T03:51:42;1.10;;;0.68;;
39400;SDS011;54391;50.000;7.360;2022-12-29T03:54:11;1.80;;;0.63;;
39400;SDS011;54391;50.000;7.360;2022-12-29T03:56:38;1.70;;;0.60;;
39400;SDS011;54391;50.000;7.360;2022-12-29T03:59:06;1.20;;;0.70;;
39400;SDS011;54391;50.000;7.360;2022-12-29T04:01:38;1.95;;;0.82;;
39400;SDS011;54391;50.000;7.360;2022-12-29T04:04:06;2.00;;;0.60;;
39400;SDS011;54391;50.000;7.360;2022-12-29T04:06:35;0.70;;;0.40;;
39400;SDS011;54391;50.000;7.360;2022-12-29T04:09:05;1.73;;;0.70;;
39400;SDS011;54391;50.000;7.360;2022-12-29T04:11:38;0.75;;;0.55;;
39400;SDS011;54391;50.000;7.360;2022-12-29T04:14:06;1.23;;;0.75;;
39400;SDS011;54391;50.000;7.360;2022-12-29T04:16:34;3.63;;;0.80;;
39400;SDS011;54391;50.000;7.360;2022-12-29T04:19:05;1.45;;;0.90;;
39400;SDS011;54391;50.000;7.360;2022-12-29T04:21:33;1.40;;;0.52;;
39400;SDS011;54391;50.000;7.360;2022-12-29T04:24:03;1.52;;;0.70;;
39400;SDS011;54391;50.000;7.360;2022-12-29T04:26:32;1.70;;;0.60;;
39400;SDS011;54391;50.000;7.360;2022-12-29T04:29:20;1.10;;;0.60;;
39400;SDS011;54391;50.000;7.360;2022-12-29T04:32:06;0.80;;;0.60;;
39400;SDS011;54391;50.000;7.360;2022-12-29T04:34:37;2.08;;;0.80;;
39400;SDS011;54391;50.000;7.360;2022-12-29T04:37:06;1.30;;;0.70;;
39400;SDS011;54391;50.000;7.360;2022-12-29T04:39:33;1.33;;;0.55;;
39400;SDS011;54391;50.000;7.360;2022-12-29T04:42:02;3.22;;;0.70;;
39400;SDS011;54391;50.000;7.360;2022-12-29T04:44:30;1.38;;;0.73;;
39400;SDS011;54391;50.000;7.360;2022-12-29T04:47:10;1.92;;;0.90;;
39400;SDS011;54391;50.000;7.360;2022-12-29T04:49:50;1.15;;;0.70;;
39400;SDS011;54391;50.000;7.360;2022-12-29T04:52:37;1.13;;;0.65;;
39400;SDS011;54391;50.000;7.360;2022-12-29T04:55:07;0.93;;;0.70;;
39400;SDS011;54391;50.000;7.360;2022-12-29T04:57:35;1.63;;;0.47;;
39400;SDS011;54391;50.000;7.360;2022-12-29T05:00:02;0.43;;;0.40;;
39400;SDS011;54391;50.000;7.360;2022-12-29T05:02:31;1.00;;;0.55;;
39400;SDS011;54391;50.000;7.360;2022-12-29T05:04:58;1.98;;;1.10;;
39400;SDS011;54391;50.000;7.360;2022-12-29T05:07:25;1.00;;;0.55;;
39400;SDS011;54391;50.000;7.360;2022-12-29T05:09:55;1.90;;;0.80;;
39400;SDS011;54391;50.000;7.360;2022-12-29T05:12:22;0.40;;;0.40;;
39400;SDS011;54391;50.000;7.360;2022-12-29T05:14:57;1.42;;;0.45;;
39400;SDS011;54391;50.000;7.360;2022-12-29T05:17:24;1.65;;;0.68;;
39400;SDS011;54391;50.000;7.360;2022-12-29T05:19:52;1.23;;;0.60;;
39400;SDS011;54391;50.000;7.360;2022-12-29T05:22:20;1.77;;;0.55;;
39400;SDS011;54391;50.000;7.360;2022-12-29T05:24:48;1.05;;;0.70;;
39400;SDS011;54391;50.000;7.360;2022-12-29T05:27:16;3.53;;;0.85;;
39400;SDS011;54391;50.000;7.360;2022-12-29T05:30:08;1.45;;;0.85;;
39400;SDS011;54391;50.000;7.360;2022-12-29T05:32:36;1.48;;;0.55;;
39400;SDS011;54391;50.000;7.360;2022-12-29T05:35:04;0.75;;;0.55;;
39400;SDS011;54391;50.000;7.360;2022-12-29T05:37:32;1.50;;;0.80;;
39400;SDS011;54391;50.000;7.360;2022-12-29T05:40:00;0.90;;;0.60;;
39400;SDS011;54391;50.000;7.360;2022-12-29T05:42:29;2.45;;;1.00;;
39400;SDS011;54391;50.000;7.360;2022-12-29T05:45:10;2.92;;;0.88;;
39400;SDS011;54391;50.000;7.360;2022-12-29T05:47:53;0.75;;;0.50;;
39400;SDS011;54391;50.000;7.360;2022-12-29T05:50:46;0.75;;;0.45;;
39400;SDS011;54391;50.000;7.360;2022-12-29T05:53:15;0.68;;;0.50;;
39400;SDS011;54391;50.000;7.360;2022-12-29T05:55:44;1.90;;;0.63;;
39400;SDS011;54391;50.000;7.360;2022-12-29T05:58:14;1.90;;;0.70;;
39400;SDS011;54391;50.000;7.360;2022-12-29T06:00:42;0.57;;;0.55;;
39400;SDS011;54391;50.000;7.360;2022-12-29T06:03:10;1.00;;;0.70;;
39400;SDS011;54391;50.000;7.360;2022-12-29T06:05:37;0.95;;;0.40;;
39400;SDS011;54391;50.000;7.360;2022-12-29T06:08:04;0.90;;;0.47;;
39400;SDS011;54391;50.000;7.360;2022-12-29T06:10:33;0.80;;;0.50;;
39400;SDS011;54391;50.000;7.360;2022-12-29T06:13:07;0.70;;;0.40;;
39400;SDS011;54391;50.000;7.360;2022-12-29T06:15:40;0.50;;;0.50;;
39400;SDS011;54391;50.000;7.360;2022-12-29T06:18:07;1.00;;;0.30;;
39400;SDS011;54391;50.000;7.360;2022-12-29T06:20:35;0.30;;;0.30;;
39400;SDS011;54391;50.000;7.360;2022-12-29T06:23:07;0.98;;;0.57;;
39400;SDS011;54391;50.000;7.360;2022-12-29T06:25:35;0.47;;;0.30;;
39400;SDS011;54391;50.000;7.360;2022-12-29T06:28:02;0.30;;;0.22;;
39400;SDS011;54391;50.000;7.360;2022-12-29T06:30:30;0.40;;;0.28;;
39400;SDS011;54391;50.000;7.360;2022-12-29T06:32:59;0.47;;;0.30;;
39400;SDS011;54391;50.000;7.360;2022-12-29T06:35:28;0.43;;;0.22;;
39400;SDS011;54391;50.000;7.360;2022-12-29T06:37:55;0.50;;;0.20;;
39400;SDS011;54391;50.000;7.360;2022-12-29T06:40:23;0.52;;;0.28;;
39400;SDS011;54391;50.000;7.360;2022-12-29T06:43:08;0.43;;;0.28;;
39400;SDS011;54391;50.000;7.360;2022-12-29T06:45:54;0.20;;;0.20;;
39400;SDS011;54391;50.000;7.360;2022-12-29T06:48:22;0.32;;;0.20;;
39400;SDS011;54391;50.000;7.360;2022-12-29T06:50:49;0.85;;;0.50;;
39400;SDS011;54391;50.000;7.360;2022-12-29T06:53:17;0.85;;;0.40;;
39400;SDS011;54391;50.000;7.360;2022-12-29T06:55:44;1.60;;;0.30;;
39400;SDS011;54391;50.000;7.360;2022-12-29T06:58:11;0.60;;;0.50;;
39400;SDS011;54391;50.000;7.360;2022-12-29T07:00:39;1.38;;;0.70;;
39400;SDS011;54391;50.000;7.360;2022-12-29T07:03:06;0.90;;;0.50;;
39400;SDS011;54391;50.000;7.360;2022-12-29T07:05:35;0.57;;;0.55;;
39400;SDS011;54391;50.000;7.360;2022-12-29T07:08:02;1.17;;;0.63;;
39400;SDS011;54391;50.000;7.360;2022-12-29T07:10:30;0.75;;;0.50;;
39400;SDS011;54391;50.000;7.360;2022-12-29T07:12:57;1.17;;;0.60;;
39400;SDS011;54391;50.000;7.360;2022-12-29T07:15:24;1.90;;;0.68;;
39400;SDS011;54391;50.000;7.360;2022-12-29T07:17:51;0.90;;;0.50;;
39400;SDS011;54391;50.000;7.360;2022-12-29T07:20:19;1.40;;;0.57;;
39400;SDS011;54391;50.000;7.360;2022-12-29T07:22:47;0.77;;;0.50;;
39400;SDS011;54391;50.000;7.360;2022-12-29T07:25:14;1.17;;;0.50;;
39400;SDS011;54391;50.000;7.360;2022-12-29T07:27:42;0.52;;;0.40;;
39400;SDS011;54391;50.000;7.360;2022-12-29T07:30:10;1.02;;;0.52;;
39400;SDS011;54391;50.000;7.360;2022-12-29T07:32:38;0.90;;;0.50;;
39400;SDS011;54391;50.000;7.360;2022-12-29T07:35:05;0.68;;;0.50;;
39400;SDS011;54391;50.000;7.360;2022-12-29T07:37:33;0.73;;;0.40;;
39400;SDS011;54391;50.000;7.360;2022-12-29T07:40:02;2.85;;;0.57;;
39400;SDS011;54391;50.000;7.360;2022-12-29T07:42:30;0.68;;;0.50;;
39400;SDS011;54391;50.000;7.360;2022-12-29T07:44:58;1.00;;;0.80;;
39400;SDS011;54391;50.000;7.360;2022-12-29T07:50:01;0.93;;;0.60;;
39400;SDS011;54391;50.000;7.360;2022-12-29T07:52:29;0.50;;;0.50;;
39400;SDS011;54391;50.000;7.360;2022-12-29T07:54:56;0.85;;;0.55;;
39400;SDS011;54391;50.000;7.360;2022-12-29T07:57:24;0.73;;;0.40;;
39400;SDS011;54391;50.000;7.360;2022-12-29T07:59:52;0.68;;;0.47;;
39400;SDS011;54391;50.000;7.360;2022-12-29T08:02:19;0.40;;;0.32;;
39400;SDS011;54391;50.000;7.360;2022-12-29T08:04:46;0.57;;;0.40;;
39400;SDS011;54391;50.000;7.360;2022-12-29T08:07:13;0.60;;;0.45;;
39400;SDS011;54391;50.000;7.360;2022-12-29T08:09:40;1.45;;;0.50;;
39400;SDS011;54391;50.000;7.360;2022-12-29T08:12:08;1.05;;;0.47;;
39400;SDS011;54391;50.000;7.360;2022-12-29T08:14:37;0.55;;;0.40;;
39400;SDS011;54391;50.000;7.360;2022-12-29T08:17:04;0.93;;;0.45;;
39400;SDS011;54391;50.000;7.360;2022-12-29T08:19:32;0.25;;;0.25;;
39400;SDS011;54391;50.000;7.360;2022-12-29T08:21:59;0.63;;;0.30;;
39400;SDS011;54391;50.000;7.360;2022-12-29T08:24:28;1.17;;;0.40;;
39400;SDS011;54391;50.000;7.360;2022-12-29T08:26:55;1.65;;;0.40;;
39400;SDS011;54391;50.000;7.360;2022-12-29T08:29:23;0.40;;;0.30;;
39400;SDS011;54391;50.000;7.360;2022-12-29T08:31:51;1.20;;;0.52;;
39400;SDS011;54391;50.000;7.360;2022-12-29T08:34:18;0.25;;;0.20;;
39400;SDS011;54391;50.000;7.360;2022-12-29T08:36:46;0.20;;;0.20;;
39400;SDS011;54391;50.000;7.360;2022-12-29T08:39:13;0.80;;;0.40;;
39400;SDS011;54391;50.000;7.360;2022-12-29T08:41:40;0.77;;;0.35;;
39400;SDS011;54391;50.000;7.360;2022-12-29T08:44:07;2.25;;;0.47;;
39400;SDS011;54391;50.000;7.360;2022-12-29T08:46:35;2.42;;;0.63;;
39400;SDS011;54391;50.000;7.360;2022-12-29T08:49:03;0.82;;;0.40;;
39400;SDS011;54391;50.000;7.360;2022-12-29T08:51:31;0.75;;;0.43;;
39400;SDS011;54391;50.000;7.360;2022-12-29T08:53:58;1.30;;;0.55;;
39400;SDS011;54391;50.000;7.360;2022-12-29T08:56:26;1.70;;;0.40;;
39400;SDS011;54391;50.000;7.360;2022-12-29T08:58:55;0.68;;;0.40;;
39400;SDS011;54391;50.000;7.360;2022-12-29T09:01:23;4.57;;;0.47;;
39400;SDS011;54391;50.000;7.360;2022-12-29T09:03:51;2.25;;;0.70;;
39400;SDS011;54391;50.000;7.360;2022-12-29T09:06:20;0.63;;;0.40;;
39400;SDS011;54391;50.000;7.360;2022-12-29T09:08:47;0.93;;;0.40;;
39400;SDS011;54391;50.000;7.360;2022-12-29T09:11:16;1.45;;;0.40;;
39400;SDS011;54391;50.000;7.360;2022-12-29T09:13:45;0.95;;;0.50;;
39400;SDS011;54391;50.000;7.360;2022-12-29T09:16:12;0.75;;;0.30;;
39400;SDS011;54391;50.000;7.360;2022-12-29T09:18:40;1.70;;;0.45;;
39400;SDS011;54391;50.000;7.360;2022-12-29T09:21:07;1.88;;;0.63;;
39400;SDS011;54391;50.000;7.360;2022-12-29T09:23:37;0.77;;;0.22;;
39400;SDS011;54391;50.000;7.360;2022-12-29T09:26:05;0.80;;;0.50;;
39400;SDS011;54391;50.000;7.360;2022-12-29T09:28:32;0.10;;;0.10;;
39400;SDS011;54391;50.000;7.360;2022-12-29T09:31:00;2.33;;;0.30;;
39400;SDS011;54391;50.000;7.360;2022-12-29T09:33:27;1.58;;;1.42;;
39400;SDS011;54391;50.000;7.360;2022-12-29T09:35:55;0.30;;;0.20;;
39400;SDS011;54391;50.000;7.360;2022-12-29T09:38:23;0.15;;;0.15;;
39400;SDS011;54391;50.000;7.360;2022-12-29T09:40:53;0.73;;;0.40;;
39400;SDS011;54391;50.000;7.360;2022-12-29T09:43:29;0.80;;;0.40;;
39400;SDS011;54391;50.000;7.360;2022-12-29T09:46:12;0.30;;;0.28;;
39400;SDS011;54391;50.000;7.360;2022-12-29T09:48:46;0.55;;;0.30;;
39400;SDS011;54391;50.000;7.360;2022-12-29T09:51:20;1.13;;;0.50;;
39400;SDS011;54391;50.000;7.360;2022-12-29T09:53:51;0.65;;;0.30;;
39400;SDS011;54391;50.000;7.360;2022-12-29T09:56:23;0.40;;;0.40;;
39400;SDS011;54391;50.000;7.360;2022-12-29T09:58:54;1.10;;;0.40;;
39400;SDS011;54391;50.000;7.360;2022-12-29T10:01:28;0.80;;;0.40;;
39400;SDS011;54391;50.000;7.360;2022-12-29T10:03:59;1.33;;;0.30;;
39400;SDS011;54391;50.000;7.360;2022-12-29T10:06:32;0.55;;;0.22;;
39400;SDS011;54391;50.000;7.360;2022-12-29T10:09:04;1.95;;;0.30;;
39400;SDS011;54391;50.000;7.360;2022-12-29T10:11:45;1.48;;;0.32;;
39400;SDS011;54391;50.000;7.360;2022-12-29T10:14:27;0.68;;;0.30;;
39400;SDS011;54391;50.000;7.360;2022-12-29T10:17:04;0.80;;;0.32;;
39400;SDS011;54391;50.000;7.360;2022-12-29T10:19:49;3.38;;;0.50;;
39400;SDS011;54391;50.000;7.360;2022-12-29T10:22:31;0.35;;;0.20;;
39400;SDS011;54391;50.000;7.360;2022-12-29T10:25:08;1.23;;;0.60;;
39400;SDS011;54391;50.000;7.360;2022-12-29T10:27:41;1.17;;;0.50;;
39400;SDS011;54391;50.000;7.360;2022-12-29T10:30:13;1.17;;;0.43;;
39400;SDS011;54391;50.000;7.360;2022-12-29T10:32:43;2.70;;;0.57;;
39400;SDS011;54391;50.000;7.360;2022-12-29T10:35:14;7.90;;;1.25;;
39400;SDS011;54391;50.000;7.360;2022-12-29T10:37:46;2.50;;;0.60;;
39400;SDS011;54391;50.000;7.360;2022-12-29T10:40:19;0.70;;;0.40;;
39400;SDS011;54391;50.000;7.360;2022-12-29T10:42:54;3.58;;;0.40;;
39400;SDS011;54391;50.000;7.360;2022-12-29T10:45:24;1.30;;;0.50;;
39400;SDS011;54391;50.000;7.360;2022-12-29T10:47:57;3.60;;;0.47;;
39400;SDS011;54391;50.000;7.360;2022-12-29T10:50:28;3.53;;;0.35;;
39400;SDS011;54391;50.000;7.360;2022-12-29T10:52:56;4.63;;;1.05;;
39400;SDS011;54391;50.000;7.360;2022-12-29T10:55:27;2.10;;;0.60;;
39400;SDS011;54391;50.000;7.360;2022-12-29T10:58:01;4.13;;;0.73;;
39400;SDS011;54391;50.000;7.360;2022-12-29T11:00:31;2.70;;;0.63;;
39400;SDS011;54391;50.000;7.360;2022-12-29T11:06:07;4.88;;;0.77;;
39400;SDS011;54391;50.000;7.360;2022-12-29T11:08:39;2.45;;;0.50;;
39400;SDS011;54391;50.000;7.360;2022-12-29T11:11:14;1.55;;;0.30;;
39400;SDS011;54391;50.000;7.360;2022-12-29T11:13:56;1.77;;;0.55;;
39400;SDS011;54391;50.000;7.360;2022-12-29T11:16:28;3.40;;;0.47;;
39400;SDS011;54391;50.000;7.360;2022-12-29T11:18:57;3.03;;;0.50;;
39400;SDS011;54391;50.000;7.360;2022-12-29T11:21:26;4.55;;;0.88;;
39400;SDS011;54391;50.000;7.360;2022-12-29T11:24:00;5.03;;;0.85;;
39400;SDS011;54391;50.000;7.360;2022-12-29T11:26:30;8.60;;;1.33;;
39400;SDS011;54391;50.000;7.360;2022-12-29T11:31:48;2.92;;;0.73;;
39400;SDS011;54391;50.000;7.360;2022-12-29T11:34:17;4.47;;;0.77;;
39400;SDS011;54391;50.000;7.360;2022-12-29T11:36:45;1.70;;;0.52;;
39400;SDS011;54391;50.000;7.360;2022-12-29T11:39:28;2.35;;;0.50;;
39400;SDS011;54391;50.000;7.360;2022-12-29T11:42:03;4.55;;;1.35;;
39400;SDS011;54391;50.000;7.360;2022-12-29T11:44:37;3.90;;;0.77;;
39400;SDS011;54391;50.000;7.360;2022-12-29T11:47:12;1.38;;;0.30;;
39400;SDS011;54391;50.000;7.360;2022-12-29T11:49:49;1.15;;;0.40;;
39400;SDS011;54391;50.000;7.360;2022-12-29T11:52:20;2.70;;;0.65;;
39400;SDS011;54391;50.000;7.360;2022-12-29T11:54:49;2.92;;;0.47;;
39400;SDS011;54391;50.000;7.360;2022-12-29T11:57:17;4.78;;;0.73;;
39400;SDS011;54391;50.000;7.360;2022-12-29T11:59:51;1.75;;;0.75;;
39400;SDS011;54391;50.000;7.360;2022-12-29T12:02:23;1.42;;;0.40;;
39400;SDS011;54391;50.000;7.360;2022-12-29T12:05:10;1.40;;;0.50;;
39400;SDS011;54391;50.000;7.360;2022-12-29T12:07:46;0.82;;;0.30;;
39400;SDS011;54391;50.000;7.360;2022-12-29T12:10:23;1.13;;;0.38;;
39400;SDS011;54391;50.000;7.360;2022-12-29T12:12:56;1.95;;;0.70;;
39400;SDS011;54391;50.000;7.360;2022-12-29T12:15:33;2.28;;;0.57;;
39400;SDS011;54391;50.000;7.360;2022-12-29T12:18:05;3.13;;;0.80;;
39400;SDS011;54391;50.000;7.360;2022-12-29T12:20:44;1.45;;;0.32;;
39400;SDS011;54391;50.000;7.360;2022-12-29T12:23:36;3.80;;;0.82;;
39400;SDS011;54391;50.000;7.360;2022-12-29T12:26:11;3.42;;;0.50;;
39400;SDS011;54391;50.000;7.360;2022-12-29T12:28:44;3.80;;;0.65;;
39400;SDS011;54391;50.000;7.360;2022-12-29T12:31:18;1.42;;;0.47;;
39400;SDS011;54391;50.000;7.360;2022-12-29T12:33:53;2.88;;;0.93;;
39400;SDS011;54391;50.000;7.360;2022-12-29T12:36:35;4.03;;;0.50;;
39400;SDS011;54391;50.000;7.360;2022-12-29T12:39:18;5.10;;;0.70;;
39400;SDS011;54391;50.000;7.360;2022-12-29T12:41:53;2.83;;;0.50;;
39400;SDS011;54391;50.000;7.360;2022-12-29T12:44:32;4.18;;;1.23;;
39400;SDS011;54391;50.000;7.360;2022-12-29T12:47:22;1.35;;;0.40;;
39400;SDS011;54391;50.000;7.360;2022-12-29T12:56:12;4.70;;;0.63;;
39400;SDS011;54391;50.000;7.360;2022-12-29T12:58:52;2.25;;;0.52;;
39400;SDS011;54391;50.000;7.360;2022-12-29T13:01:32;2.85;;;0.40;;
39400;SDS011;54391;50.000;7.360;2022-12-29T13:04:29;2.60;;;0.40;;
39400;SDS011;54391;50.000;7.360;2022-12-29T13:07:12;2.08;;;0.50;;
39400;SDS011;54391;50.000;7.360;2022-12-29T13:10:00;2.58;;;0.50;;
39400;SDS011;54391;50.000;7.360;2022-12-29T13:12:44;2.85;;;0.55;;
39400;SDS011;54391;50.000;7.360;2022-12-29T13:15:19;2.35;;;0.63;;
39400;SDS011;54391;50.000;7.360;2022-12-29T13:17:58;3.33;;;0.98;;
39400;SDS011;54391;50.000;7.360;2022-12-29T13:20:34;3.13;;;0.60;;
39400;SDS011;54391;50.000;7.360;2022-12-29T13:23:11;2.03;;;0.90;;
39400;SDS011;54391;50.000;7.360;2022-12-29T13:25:49;5.22;;;0.70;;
39400;SDS011;54391;50.000;7.360;2022-12-29T13:28:22;1.25;;;0.63;;
39400;SDS011;54391;50.000;7.360;2022-12-29T13:30:56;2.60;;;0.50;;
39400;SDS011;54391;50.000;7.360;2022-12-29T13:33:29;1.30;;;0.50;;
39400;SDS011;54391;50.000;7.360;2022-12-29T13:36:08;4.97;;;0.70;;
39400;SDS011;54391;50.000;7.360;2022-12-29T13:38:45;4.32;;;0.90;;
39400;SDS011;54391;50.000;7.360;2022-12-29T13:41:16;4.25;;;0.60;;
39400;SDS011;54391;50.000;7.360;2022-12-29T13:43:48;3.58;;;0.70;;
39400;SDS011;54391;50.000;7.360;2022-12-29T13:46:18;2.97;;;0.98;;
39400;SDS011;54391;50.000;7.360;2022-12-29T13:48:50;2.47;;;1.13;;
39400;SDS011;54391;50.000;7.360;2022-12-29T13:51:21;4.57;;;0.70;;
39400;SDS011;54391;50.000;7.360;2022-12-29T13:53:54;4.63;;;1.67;;
39400;SDS011;54391;50.000;7.360;2022-12-29T13:56:33;3.47;;;0.45;;
39400;SDS011;54391;50.000;7.360;2022-12-29T13:59:05;4.80;;;0.95;;
39400;SDS011;54391;50.000;7.360;2022-12-29T14:01:42;3.90;;;0.77;;
39400;SDS011;54391;50.000;7.360;2022-12-29T14:04:16;2.72;;;0.90;;
39400;SDS011;54391;50.000;7.360;2022-12-29T14:06:58;1.13;;;0.43;;
39400;SDS011;54391;50.000;7.360;2022-12-29T14:09:34;3.10;;;0.68;;
39400;SDS011;54391;50.000;7.360;2022-12-29T14:12:22;3.45;;;0.50;;
39400;SDS011;54391;50.000;7.360;2022-12-29T14:15:05;4.07;;;0.68;;
39400;SDS011;54391;50.000;7.360;2022-12-29T14:20:27;4.15;;;0.77;;
39400;SDS011;54391;50.000;7.360;2022-12-29T14:22:57;3.90;;;0.68;;
39400;SDS011;54391;50.000;7.360;2022-12-29T14:28:28;5.38;;;0.88;;
39400;SDS011;54391;50.000;7.360;2022-12-29T14:30:56;3.55;;;0.82;;
39400;SDS011;54391;50.000;7.360;2022-12-29T14:33:25;5.25;;;0.90;;
39400;SDS011;54391;50.000;7.360;2022-12-29T14:35:54;2.95;;;0.43;;
39400;SDS011;54391;50.000;7.360;2022-12-29T14:38:24;3.95;;;0.73;;
39400;SDS011;54391;50.000;7.360;2022-12-29T14:43:50;4.18;;;0.80;;
39400;SDS011;54391;50.000;7.360;2022-12-29T14:46:20;8.20;;;0.77;;
39400;SDS011;54391;50.000;7.360;2022-12-29T14:48:52;5.10;;;0.70;;
39400;SDS011;54391;50.000;7.360;2022-12-29T14:51:30;4.60;;;1.00;;
39400;SDS011;54391;50.000;7.360;2022-12-29T14:54:02;1.40;;;0.68;;
39400;SDS011;54391;50.000;7.360;2022-12-29T14:59:39;4.07;;;0.77;;
39400;SDS011;54391;50.000;7.360;2022-12-29T15:02:12;3.33;;;1.13;;
39400;SDS011;54391;50.000;7.360;2022-12-29T15:04:43;3.60;;;0.82;;
39400;SDS011;54391;50.000;7.360;2022-12-29T15:07:11;5.00;;;0.65;;
39400;SDS011;54391;50.000;7.360;2022-12-29T15:09:42;3.85;;;0.95;;
39400;SDS011;54391;50.000;7.360;2022-12-29T15:12:18;7.23;;;1.57;;
39400;SDS011;54391;50.000;7.360;2022-12-29T15:14:49;1.77;;;0.82;;
39400;SDS011;54391;50.000;7.360;2022-12-29T15:17:24;1.58;;;0.60;;
39400;SDS011;54391;50.000;7.360;2022-12-29T15:19:54;4.07;;;0.80;;
39400;SDS011;54391;50.000;7.360;2022-12-29T15:22:23;6.88;;;0.82;;
39400;SDS011;54391;50.000;7.360;2022-12-29T15:24:52;5.72;;;0.90;;
39400;SDS011;54391;50.000;7.360;2022-12-29T15:27:21;3.85;;;0.90;;
39400;SDS011;54391;50.000;7.360;2022-12-29T15:29:55;9.27;;;1.92;;
39400;SDS011;54391;50.000;7.360;2022-12-29T15:32:25;3.92;;;1.27;;
39400;SDS011;54391;50.000;7.360;2022-12-29T15:34:53;4.80;;;1.00;;
39400;SDS011;54391;50.000;7.360;2022-12-29T15:37:23;3.08;;;0.88;;
39400;SDS011;54391;50.000;7.360;2022-12-29T15:39:53;5.13;;;0.93;;
39400;SDS011;54391;50.000;7.360;2022-12-29T15:45:14;6.32;;;1.27;;
39400;SDS011;54391;50.000;7.360;2022-12-29T15:47:43;5.95;;;1.30;;
39400;SDS011;54391;50.000;7.360;2022-12-29T15:50:15;3.90;;;1.17;;
39400;SDS011;54391;50.000;7.360;2022-12-29T15:52:48;5.93;;;1.60;;
39400;SDS011;54391;50.000;7.360;2022-12-29T15:55:19;6.80;;;0.95;;